Time;durP1;ratioP1;P1;durP2;ratioP2;P2;SDS_P1;SDS_P2;PMS_P1;PMS_P2;Temp;Humidity;BMP_temperature;BMP_pressure;BME280_temperature;BME280_humidity;BME280_pressure;Samples;Min_cycle;Max_cycle;Signal;HPM_P1;HPM_P2
2021/03/10 00:02:25;;;;;;;33.63;21.10;;;;;;;5.97;61.78;96736.34;5071063;28;20833;-67
2021/03/10 00:04:56;;;;;;;34.43;21.00;;;;;;;6.02;61.91;96735.97;5072487;28;20862;-67
2021/03/10 00:07:24;;;;;;;34.60;23.23;;;;;;;5.89;62.92;96742.22;5071258;28;20179;-68
2021/03/10 00:09:50;;;;;;;36.60;23.40;;;;;;;5.61;64.77;96736.81;5073763;28;20438;-68
2021/03/10 00:12:16;;;;;;;39.97;23.10;;;;;;;5.73;64.13;96744.50;5071014;28;20469;-67
2021/03/10 00:14:42;;;;;;;39.40;23.60;;;;;;;5.31;66.04;96742.84;5075272;28;20983;-67
2021/03/10 00:17:07;;;;;;;36.63;22.20;;;;;;;5.29;66.50;96740.41;5076358;28;20604;-67
2021/03/10 00:19:33;;;;;;;44.50;25.33;;;;;;;4.93;68.64;96745.13;5078079;28;20546;-67
2021/03/10 00:21:58;;;;;;;41.50;24.20;;;;;;;5.00;68.39;96741.06;5066836;28;20209;-67
2021/03/10 00:24:24;;;;;;;45.33;25.03;;;;;;;5.00;68.51;96741.06;5067615;28;20183;-66
2021/03/10 00:26:50;;;;;;;43.50;25.70;;;;;;;5.06;68.55;96747.53;5076195;28;20195;-66
2021/03/10 00:29:15;;;;;;;43.70;25.80;;;;;;;5.12;68.81;96749.59;5083300;28;20206;-67
2021/03/10 00:31:41;;;;;;;47.40;25.73;;;;;;;5.32;68.12;96747.91;5076820;28;20203;-67
2021/03/10 00:34:07;;;;;;;43.03;24.77;;;;;;;5.33;68.58;96749.56;5076216;28;20592;-66
2021/03/10 00:36:32;;;;;;;41.37;23.53;;;;;;;5.42;67.69;96749.75;5075953;28;20209;-67
2021/03/10 00:38:58;;;;;;;46.27;26.07;;;;;;;5.75;66.87;96756.41;5078749;28;20259;-67
2021/03/10 00:41:24;;;;;;;41.73;25.40;;;;;;;5.51;67.53;96751.56;5058432;28;20239;-67
2021/03/10 00:43:49;;;;;;;47.73;25.90;;;;;;;5.74;67.01;96751.34;5070797;28;20198;-66
2021/03/10 00:46:15;;;;;;;46.70;26.70;;;;;;;5.77;66.83;96748.47;5078755;28;20229;-67
2021/03/10 00:48:41;;;;;;;50.60;25.47;;;;;;;5.82;66.66;96759.28;5071838;28;20273;-66
2021/03/10 00:51:07;;;;;;;46.83;26.17;;;;;;;5.65;67.74;96765.94;5066801;28;20225;-69
2021/03/10 00:53:32;;;;;;;41.93;25.13;;;;;;;5.54;67.73;96769.50;5074657;28;20285;-66
2021/03/10 00:55:58;;;;;;;42.23;25.70;;;;;;;5.81;67.13;96770.66;5075866;28;20452;-66
2021/03/10 00:58:24;;;;;;;42.30;24.83;;;;;;;5.68;67.57;96761.31;5076093;28;20232;-66
2021/03/10 01:00:50;;;;;;;45.40;25.23;;;;;;;5.46;68.33;96762.34;5076218;28;20553;-66
2021/03/10 01:03:16;;;;;;;44.70;26.03;;;;;;;5.64;68.13;96765.16;5079081;28;20187;-66
2021/03/10 01:05:42;;;;;;;44.87;26.30;;;;;;;5.66;67.77;96763.25;5075619;28;20183;-68
2021/03/10 01:08:07;;;;;;;44.07;26.10;;;;;;;5.95;67.41;96759.88;5075870;28;20424;-68
2021/03/10 01:10:33;;;;;;;51.40;27.60;;;;;;;5.54;67.72;96759.09;5073253;28;20289;-66
2021/03/10 01:13:03;;;;;;;48.83;27.27;;;;;;;5.51;68.52;96767.16;5075210;28;20186;-67
2021/03/10 01:15:29;;;;;;;48.10;27.77;;;;;;;5.65;68.04;96760.75;5074141;28;20174;-67
2021/03/10 01:17:55;;;;;;;45.67;25.80;;;;;;;5.72;68.04;96751.47;5067078;28;20460;-67
2021/03/10 01:20:21;;;;;;;52.03;28.40;;;;;;;5.71;68.16;96744.63;5069430;28;20199;-68
2021/03/10 01:22:47;;;;;;;48.87;27.70;;;;;;;6.06;66.92;96748.56;5071513;28;20228;-67
2021/03/10 01:25:13;;;;;;;46.83;25.70;;;;;;;6.13;66.50;96741.84;5069522;28;20452;-67
2021/03/10 01:27:39;;;;;;;42.83;26.40;;;;;;;5.34;68.23;96742.59;5075138;28;20504;-66
2021/03/10 01:30:07;;;;;;;53.23;28.33;;;;;;;5.27;69.01;96747.50;5073677;28;20582;-67
2021/03/10 01:32:33;;;;;;;50.90;27.57;;;;;;;5.37;68.29;96743.16;5058395;28;20493;-67
2021/03/10 01:34:59;;;;;;;50.07;28.23;;;;;;;5.61;68.02;96746.34;5076021;28;20457;-67
2021/03/10 01:37:25;;;;;;;44.77;28.37;;;;;;;5.75;67.71;96740.00;5074543;28;20212;-66
2021/03/10 01:39:51;;;;;;;48.67;28.53;;;;;;;5.31;68.99;96737.66;5075524;28;20412;-65
2021/03/10 01:42:16;;;;;;;47.10;26.40;;;;;;;5.62;67.79;96735.84;5065899;28;20190;-67
2021/03/10 01:44:42;;;;;;;49.20;27.57;;;;;;;5.78;67.25;96745.75;5074473;28;20710;-67
2021/03/10 01:47:08;;;;;;;53.50;28.17;;;;;;;5.12;68.95;96738.41;5059148;28;20190;-67
2021/03/10 01:49:35;;;;;;;54.10;29.23;;;;;;;5.44;67.65;96734.81;5073115;28;20187;-67
2021/03/10 01:52:00;;;;;;;55.80;28.37;;;;;;;5.26;68.81;96737.22;5049248;28;20566;-67
2021/03/10 01:54:26;;;;;;;51.10;27.07;;;;;;;5.11;68.41;96736.75;5075088;28;20515;-67
2021/03/10 01:56:52;;;;;;;51.03;27.57;;;;;;;5.12;69.13;96733.19;5074055;28;20646;-67
2021/03/10 01:59:17;;;;;;;51.17;29.50;;;;;;;4.96;69.52;96744.06;5072570;28;20247;-66
2021/03/10 02:01:43;;;;;;;47.10;27.67;;;;;;;4.99;69.30;96741.19;5072776;28;20660;-69
2021/03/10 02:04:09;;;;;;;53.17;28.37;;;;;;;4.52;70.79;96737.22;5074767;28;20178;-67
2021/03/10 02:06:44;;;;;;;55.53;28.27;;;;;;;4.69;69.88;96733.22;5075837;28;20182;-67
2021/03/10 02:09:33;;;;;;;52.87;29.10;;;;;;;4.81;70.16;96736.59;5058126;28;20817;-67
2021/03/10 02:12:09;;;;;;;53.63;28.87;;;;;;;5.00;69.19;96735.88;5058177;28;20447;-67
2021/03/10 02:14:45;;;;;;;54.70;28.00;;;;;;;5.15;68.32;96736.34;5074000;28;20574;-67
2021/03/10 02:17:15;;;;;;;52.50;28.80;;;;;;;5.05;68.52;96727.69;5044771;28;20472;-67
2021/03/10 02:19:55;;;;;;;59.00;29.27;;;;;;;5.15;67.75;96727.75;5055374;28;20433;-66
2021/03/10 02:22:41;;;;;;;52.73;28.90;;;;;;;5.19;67.82;96723.91;5058928;28;20431;-66
2021/03/10 02:25:17;;;;;;;51.53;28.13;;;;;;;5.16;68.67;96719.81;5067994;28;20912;-67
2021/03/10 02:27:47;;;;;;;46.10;25.90;;;;;;;5.21;68.19;96724.63;5071624;28;20413;-67
2021/03/10 02:30:25;;;;;;;57.03;29.07;;;;;;;5.24;68.44;96724.38;5072376;28;20473;-66
2021/03/10 02:33:04;;;;;;;47.10;26.77;;;;;;;5.07;68.67;96716.22;5072395;28;20989;-67
2021/03/10 02:35:30;;;;;;;50.13;29.30;;;;;;;5.18;68.83;96717.91;5072937;28;20531;-66
2021/03/10 02:37:58;;;;;;;49.50;27.90;;;;;;;5.05;69.39;96718.13;5070898;28;20456;-67
2021/03/10 02:40:25;;;;;;;62.90;31.43;;;;;;;5.26;68.20;96724.22;5072537;28;20433;-69
2021/03/10 02:42:54;;;;;;;55.07;28.63;;;;;;;4.82;70.17;96727.00;5064942;28;20900;-66
2021/03/10 02:45:22;;;;;;;57.40;28.50;;;;;;;4.82;70.75;96737.41;5066446;28;20525;-66
2021/03/10 02:47:50;;;;;;;62.70;31.73;;;;;;;4.60;71.07;96734.00;5068082;28;20421;-66
2021/03/10 02:50:18;;;;;;;54.60;29.93;;;;;;;5.02;70.09;96739.19;5037182;28;20469;-66
2021/03/10 02:52:44;;;;;;;60.37;30.00;;;;;;;5.27;69.30;96734.50;5101350;28;20478;-66
2021/03/10 02:55:10;;;;;;;55.80;30.57;;;;;;;5.32;68.36;96734.91;5071009;28;20182;-66
2021/03/10 02:57:36;;;;;;;54.80;31.03;;;;;;;5.36;68.22;96743.28;5070851;28;20455;-67
2021/03/10 03:00:09;;;;;;;57.53;29.50;;;;;;;5.35;68.02;96747.66;5071135;28;20186;-67
2021/03/10 03:02:37;;;;;;;58.97;31.90;;;;;;;5.11;68.89;96750.53;5070310;28;20911;-65
2021/03/10 03:05:07;;;;;;;58.57;30.00;;;;;;;5.33;68.66;96746.97;5069683;28;20507;-66
2021/03/10 03:07:33;;;;;;;56.83;31.23;;;;;;;5.43;68.62;96747.00;5072028;28;20420;-67
2021/03/10 03:10:00;;;;;;;65.73;31.13;;;;;;;5.44;68.00;96758.22;5073241;28;20425;-67
2021/03/10 03:12:26;;;;;;;56.40;30.17;;;;;;;5.60;68.18;96758.56;5071921;28;20460;-66
2021/03/10 03:14:52;;;;;;;56.40;31.33;;;;;;;5.56;67.79;96757.16;5070113;28;20432;-66
2021/03/10 03:17:19;;;;;;;61.70;30.90;;;;;;;5.60;67.75;96774.16;5072361;28;20564;-67
2021/03/10 03:19:45;;;;;;;65.60;30.90;;;;;;;5.76;67.65;96775.44;5074131;28;20752;-65
2021/03/10 03:22:11;;;;;;;60.30;30.43;;;;;;;5.71;67.71;96782.81;5060274;28;20893;-65
2021/03/10 03:24:36;;;;;;;55.20;30.53;;;;;;;5.70;67.16;96779.38;5062517;28;20182;-68
2021/03/10 03:27:03;;;;;;;53.20;31.43;;;;;;;5.62;67.72;96789.59;5069913;28;20425;-67
2021/03/10 03:29:30;;;;;;;52.40;28.60;;;;;;;5.48;68.53;96780.41;5073544;28;20210;-66
2021/03/10 03:31:56;;;;;;;57.50;31.53;;;;;;;5.46;67.89;96788.34;5070493;28;20453;-67
2021/03/10 03:34:22;;;;;;;58.57;30.80;;;;;;;5.49;67.96;96782.84;5070349;28;21054;-66
2021/03/10 03:36:49;;;;;;;57.13;31.17;;;;;;;5.76;67.05;96783.25;5053934;28;20420;-67
2021/03/10 03:39:15;;;;;;;54.17;31.07;;;;;;;5.46;68.04;96787.50;5069969;28;20460;-66
2021/03/10 03:41:41;;;;;;;57.33;29.47;;;;;;;5.53;67.93;96786.84;5065028;28;20456;-67
2021/03/10 03:44:07;;;;;;;53.10;30.47;;;;;;;5.53;67.58;96781.66;5066592;28;20445;-66
2021/03/10 03:46:33;;;;;;;59.67;30.20;;;;;;;5.40;68.07;96778.44;5075189;28;20767;-67
2021/03/10 03:48:59;;;;;;;61.67;32.73;;;;;;;5.59;67.26;96772.50;5076601;28;20185;-67
2021/03/10 03:51:30;;;;;;;66.30;33.60;;;;;;;5.52;67.52;96787.00;5065384;28;20208;-67
2021/03/10 03:54:13;;;;;;;55.40;30.00;;;;;;;5.60;67.22;96781.13;5074779;28;20471;-67
2021/03/10 03:56:39;;;;;;;51.30;29.73;;;;;;;5.70;67.00;96784.59;5075237;28;20420;-66
2021/03/10 03:59:05;;;;;;;61.10;30.50;;;;;;;5.48;67.71;96785.59;5074012;28;20951;-67
2021/03/10 04:01:30;;;;;;;62.67;30.50;;;;;;;5.38;68.10;96778.59;5070362;28;20204;-67
2021/03/10 04:03:56;;;;;;;60.77;30.37;;;;;;;5.57;67.46;96779.59;5087376;28;20195;-66
2021/03/10 04:06:22;;;;;;;59.43;31.70;;;;;;;5.55;67.28;96778.91;5068532;28;20231;-67
2021/03/10 04:08:47;;;;;;;59.83;29.47;;;;;;;5.29;68.27;96781.97;5077973;28;20249;-68
2021/03/10 04:11:16;;;;;;;58.17;31.33;;;;;;;5.20;69.06;96787.91;5053005;28;20222;-67
2021/03/10 04:13:41;;;;;;;58.73;31.70;;;;;;;5.50;67.82;96781.09;5053081;28;20665;-67
2021/03/10 04:16:08;;;;;;;52.20;29.07;;;;;;;5.31;67.95;96780.03;5054123;28;20430;-67
2021/03/10 04:18:35;;;;;;;56.57;30.37;;;;;;;5.18;68.21;96776.84;5054061;28;20234;-67
2021/03/10 04:21:01;;;;;;;62.23;31.90;;;;;;;5.39;68.28;96776.81;5052631;28;20492;-67
2021/03/10 04:23:27;;;;;;;60.30;30.63;;;;;;;5.27;68.39;96768.28;5056276;28;20429;-68
2021/03/10 04:25:53;;;;;;;56.93;31.17;;;;;;;4.88;69.49;96778.47;5054240;28;20912;-67
2021/03/10 04:28:25;;;;;;;66.13;31.40;;;;;;;4.84;69.44;96787.44;5061491;28;20183;-67
2021/03/10 04:30:53;;;;;;;58.73;31.33;;;;;;;5.10;69.06;96789.66;5058032;28;20621;-67
2021/03/10 04:33:19;;;;;;;59.80;30.60;;;;;;;5.01;69.22;96792.06;5053844;28;20428;-67
2021/03/10 04:35:45;;;;;;;63.83;31.37;;;;;;;4.93;69.33;96794.47;5053789;28;20187;-67
2021/03/10 04:38:11;;;;;;;61.50;32.10;;;;;;;4.81;70.19;96792.88;5054638;28;20283;-67
2021/03/10 04:40:37;;;;;;;71.60;31.80;;;;;;;4.83;69.80;96786.63;5032521;28;20229;-65
2021/03/10 04:43:02;;;;;;;63.53;32.50;;;;;;;4.71;70.16;96782.44;5062377;28;20516;-67
2021/03/10 04:45:28;;;;;;;57.47;32.27;;;;;;;4.89;69.49;96778.31;5053857;28;20198;-66
2021/03/10 04:47:53;;;;;;;69.67;33.07;;;;;;;4.59;70.72;96784.25;5054354;28;20179;-66
2021/03/10 04:50:19;;;;;;;59.30;31.63;;;;;;;4.34;72.59;96801.81;5056548;28;20233;-67
2021/03/10 04:52:45;;;;;;;62.77;32.40;;;;;;;4.60;71.09;96798.88;5054243;28;20194;-67
2021/03/10 04:55:11;;;;;;;67.97;34.37;;;;;;;4.83;70.29;96801.38;5054474;28;20269;-68
2021/03/10 04:57:38;;;;;;;64.40;32.90;;;;;;;4.85;70.66;96802.88;5054667;28;20211;-67
2021/03/10 05:00:07;;;;;;;66.73;34.00;;;;;;;4.67;70.85;96801.81;5054822;28;20430;-67
2021/03/10 05:02:34;;;;;;;71.30;33.00;;;;;;;4.46;71.99;96816.41;5063917;28;20429;-67
2021/03/10 05:05:00;;;;;;;62.53;32.80;;;;;;;4.79;71.24;96815.56;5066312;28;20421;-67
2021/03/10 05:07:25;;;;;;;63.70;31.60;;;;;;;4.82;70.82;96820.50;5055899;28;20425;-66
2021/03/10 05:09:51;;;;;;;62.23;32.00;;;;;;;4.83;70.08;96815.19;5054520;28;20190;-68
2021/03/10 05:12:17;;;;;;;62.93;32.00;;;;;;;4.68;70.33;96809.47;5059010;28;20206;-67
2021/03/10 05:14:42;;;;;;;58.20;30.53;;;;;;;4.93;69.55;96823.03;5064827;28;20316;-68
2021/03/10 05:17:08;;;;;;;65.40;32.43;;;;;;;4.69;70.54;96820.69;5069637;28;20189;-67
2021/03/10 05:19:33;;;;;;;57.73;31.00;;;;;;;5.02;69.58;96818.84;5079232;28;20246;-68
2021/03/10 05:21:59;;;;;;;60.43;32.00;;;;;;;5.01;69.04;96810.25;5075770;28;20265;-67
2021/03/10 05:24:25;;;;;;;57.83;31.70;;;;;;;4.96;69.49;96814.19;5062748;28;20210;-66
2021/03/10 05:26:50;;;;;;;58.70;31.90;;;;;;;5.11;69.55;96825.06;5054281;28;20183;-66
2021/03/10 05:29:16;;;;;;;58.10;30.80;;;;;;;5.05;70.00;96822.03;5060139;28;20272;-67
2021/03/10 05:31:51;;;;;;;59.60;30.67;;;;;;;5.34;68.95;96821.38;5035869;28;20203;-66
2021/03/10 05:34:17;;;;;;;58.10;32.13;;;;;;;5.21;68.73;96821.59;5046398;28;20187;-67
2021/03/10 05:36:42;;;;;;;61.10;32.60;;;;;;;5.17;68.83;96830.59;5053762;28;20865;-68
2021/03/10 05:39:08;;;;;;;63.27;31.27;;;;;;;5.20;68.87;96826.91;5052943;28;20199;-67
2021/03/10 05:41:34;;;;;;;61.90;31.80;;;;;;;5.22;68.90;96832.78;5060297;28;20280;-66
2021/03/10 05:44:00;;;;;;;68.37;32.33;;;;;;;5.20;68.61;96832.09;5061191;28;20213;-67
2021/03/10 05:46:25;;;;;;;60.97;32.10;;;;;;;5.10;68.78;96828.63;5053071;28;20424;-68
2021/03/10 05:48:51;;;;;;;62.60;31.20;;;;;;;5.01;69.52;96831.03;5052036;28;20181;-67
2021/03/10 05:51:19;;;;;;;59.57;31.00;;;;;;;5.46;68.10;96829.09;5053207;28;20199;-68
2021/03/10 05:53:50;;;;;;;69.97;32.77;;;;;;;5.29;68.46;96835.69;5058025;28;20428;-68
2021/03/10 05:56:17;;;;;;;61.83;31.63;;;;;;;5.58;67.63;96841.03;5038300;28;20483;-66
2021/03/10 05:58:53;;;;;;;71.27;35.07;;;;;;;5.49;67.98;96845.25;5051936;28;20461;-68
2021/03/10 06:01:19;;;;;;;61.90;31.70;;;;;;;5.34;68.65;96842.16;5045569;28;20195;-67
2021/03/10 06:03:51;;;;;;;67.47;33.37;;;;;;;4.96;69.20;96842.75;5051062;28;20438;-67
2021/03/10 06:06:17;;;;;;;69.53;32.90;;;;;;;5.14;69.21;96843.00;5052748;28;20183;-68
2021/03/10 06:08:42;;;;;;;75.03;33.30;;;;;;;5.28;68.84;96850.47;5050510;28;20931;-67
2021/03/10 06:11:08;;;;;;;56.73;31.80;;;;;;;5.20;68.96;96845.09;5048806;28;20294;-68
2021/03/10 06:13:34;;;;;;;55.73;31.47;;;;;;;5.32;67.74;96844.06;5053185;28;20175;-68
2021/03/10 06:16:00;;;;;;;60.47;32.13;;;;;;;5.12;68.83;96844.91;5051461;28;20232;-67
2021/03/10 06:18:34;;;;;;;55.43;29.47;;;;;;;5.15;68.41;96852.44;5052713;28;20308;-67
2021/03/10 06:21:08;;;;;;;55.70;29.47;;;;;;;5.43;68.32;96855.34;5057785;28;20561;-67
2021/03/10 06:23:36;;;;;;;58.83;31.13;;;;;;;5.34;67.72;96857.75;5044410;28;20444;-67
2021/03/10 06:26:03;;;;;;;55.23;29.83;;;;;;;5.32;68.12;96857.06;5069938;28;20523;-71
2021/03/10 06:28:39;;;;;;;65.23;31.00;;;;;;;5.36;67.82;96866.25;5046522;28;20534;-68
2021/03/10 06:31:24;;;;;;;63.37;32.10;;;;;;;5.23;68.36;96873.41;5071743;28;20455;-67
2021/03/10 06:34:09;;;;;;;57.80;31.20;;;;;;;5.28;68.58;96878.22;5072755;28;20490;-67
2021/03/10 06:36:44;;;;;;;61.90;31.57;;;;;;;5.36;68.45;96871.44;5071196;28;20495;-68
2021/03/10 06:39:12;;;;;;;62.17;31.50;;;;;;;5.83;66.76;96872.78;5067248;28;20542;-68
2021/03/10 06:41:42;;;;;;;54.43;28.50;;;;;;;5.51;68.44;96876.31;5062579;28;20477;-68
2021/03/10 06:44:23;;;;;;;56.77;33.20;;;;;;;4.70;70.32;96875.06;5069737;28;21130;-68
2021/03/10 06:46:52;;;;;;;55.40;31.00;;;;;;;5.30;68.97;96868.53;5085289;28;20851;-67
2021/03/10 06:49:18;;;;;;;55.30;29.50;;;;;;;5.57;67.24;96873.19;5072609;28;20412;-67
2021/03/10 06:51:58;;;;;;;55.70;30.90;;;;;;;5.42;68.26;96867.50;5071944;28;20440;-67
2021/03/10 06:54:24;;;;;;;60.67;30.70;;;;;;;5.30;68.05;96874.53;5066599;28;20478;-67
2021/03/10 06:57:14;;;;;;;61.57;31.40;;;;;;;5.50;68.04;96879.88;5072701;28;20416;-68
2021/03/10 06:59:51;;;;;;;57.40;30.43;;;;;;;5.75;67.61;96883.81;5072214;28;20903;-67
2021/03/10 07:02:24;;;;;;;52.73;29.30;;;;;;;5.43;67.60;96878.72;5070629;28;20451;-67
2021/03/10 07:04:52;;;;;;;56.40;31.67;;;;;;;5.83;66.63;96885.78;5071999;28;20421;-68
2021/03/10 07:07:18;;;;;;;57.47;30.80;;;;;;;6.09;65.65;96887.97;5071230;28;20440;-67
2021/03/10 07:09:50;;;;;;;56.10;28.70;;;;;;;6.02;66.12;96886.84;5075019;28;20432;-68
2021/03/10 07:12:17;;;;;;;57.20;30.30;;;;;;;6.22;65.50;96893.75;5064367;28;20459;-66
2021/03/10 07:14:44;;;;;;;57.83;30.90;;;;;;;6.33;64.71;96898.03;5070403;28;20781;-67
2021/03/10 07:17:12;;;;;;;54.63;31.10;;;;;;;6.64;64.31;96890.13;5070349;28;20412;-68
2021/03/10 07:19:39;;;;;;;59.07;31.10;;;;;;;6.60;63.88;96899.19;5071988;28;20425;-68
2021/03/10 07:22:31;;;;;;;55.87;29.33;;;;;;;6.38;64.69;96897.63;5062588;28;20555;-68
2021/03/10 07:25:05;;;;;;;55.50;29.30;;;;;;;6.28;64.39;96901.03;5049032;28;20792;-68
2021/03/10 07:27:45;;;;;;;61.53;31.03;;;;;;;5.98;65.79;96914.88;5069124;28;20420;-67
2021/03/10 07:30:12;;;;;;;51.37;29.27;;;;;;;6.11;64.92;96912.06;5071399;28;20424;-67
2021/03/10 07:32:38;;;;;;;61.23;31.67;;;;;;;6.27;65.27;96902.00;5072210;28;20950;-68
2021/03/10 07:35:05;;;;;;;55.77;29.47;;;;;;;6.57;64.09;96915.09;5070952;28;20429;-67
2021/03/10 07:37:31;;;;;;;58.10;31.87;;;;;;;6.38;64.37;96918.47;5071799;28;20601;-71
2021/03/10 07:40:11;;;;;;;51.80;28.10;;;;;;;6.39;64.18;96927.94;5071396;28;20428;-67
2021/03/10 07:42:52;;;;;;;56.77;31.00;;;;;;;6.40;64.97;96924.38;5062742;28;20509;-68
2021/03/10 07:45:18;;;;;;;51.73;28.73;;;;;;;6.59;64.37;96923.59;5072484;28;20427;-68
2021/03/10 07:47:58;;;;;;;55.83;29.67;;;;;;;6.49;63.85;96936.56;5072833;28;20413;-67
2021/03/10 07:50:36;;;;;;;56.70;29.93;;;;;;;6.80;63.29;96926.09;5067366;28;20448;-66
2021/03/10 07:53:13;;;;;;;52.20;28.30;;;;;;;6.58;64.36;96930.56;5042081;28;20507;-69
2021/03/10 07:55:47;;;;;;;52.70;30.00;;;;;;;6.42;65.44;96936.28;5051108;28;20425;-68
2021/03/10 07:58:27;;;;;;;54.10;29.73;;;;;;;6.83;64.26;96944.03;5048844;28;20458;-69
2021/03/10 08:00:52;;;;;;;56.50;29.20;;;;;;;6.98;63.31;96935.84;5052978;28;20882;-69
2021/03/10 08:03:30;;;;;;;51.10;29.87;;;;;;;6.99;63.22;96948.75;5042407;28;20461;-68
2021/03/10 08:06:04;;;;;;;60.93;27.37;;;;;;;6.54;63.52;96944.81;5051202;28;20183;-67
2021/03/10 08:08:34;;;;;;;51.60;28.97;;;;;;;6.78;63.85;96948.84;5049567;28;20422;-63
2021/03/10 08:11:10;;;;;;;48.90;28.33;;;;;;;6.94;63.46;96956.13;5045665;28;20452;-69
2021/03/10 08:13:36;;;;;;;47.53;28.07;;;;;;;6.86;63.26;96953.38;5054633;28;20524;-66
2021/03/10 08:16:05;;;;;;;56.10;29.70;;;;;;;6.97;62.82;96937.63;5061051;28;20523;-66
2021/03/10 08:18:32;;;;;;;51.37;29.53;;;;;;;6.98;63.04;96943.66;5065960;28;20206;-71
2021/03/10 08:21:05;;;;;;;52.50;28.90;;;;;;;7.03;62.65;96944.88;5039769;28;20903;-67
2021/03/10 08:23:31;;;;;;;55.63;28.40;;;;;;;7.05;62.42;96942.16;5038959;28;20964;-67
2021/03/10 08:25:57;;;;;;;49.93;28.50;;;;;;;7.45;61.38;96950.78;5071817;28;20482;-67
2021/03/10 08:28:23;;;;;;;51.30;27.17;;;;;;;7.16;62.44;96949.84;5067379;28;20471;-68
2021/03/10 08:30:49;;;;;;;46.50;27.83;;;;;;;7.04;62.36;96946.53;5048997;28;20639;-68
2021/03/10 08:33:15;;;;;;;52.50;29.40;;;;;;;7.67;60.80;96944.44;5055001;28;20187;-68
2021/03/10 08:35:51;;;;;;;48.93;28.77;;;;;;;7.14;61.55;96948.31;5055364;28;20939;-69
2021/03/10 08:38:17;;;;;;;48.83;27.80;;;;;;;7.56;60.68;96960.25;5051762;28;20206;-68
2021/03/10 08:40:42;;;;;;;52.00;27.67;;;;;;;7.34;61.10;96954.34;5047618;28;20457;-69
2021/03/10 08:43:16;;;;;;;47.43;28.07;;;;;;;7.25;61.44;96952.56;5040924;28;20525;-67
2021/03/10 08:45:42;;;;;;;56.73;29.70;;;;;;;7.02;62.11;96948.44;5064012;28;20187;-67
2021/03/10 08:48:13;;;;;;;49.80;28.43;;;;;;;7.41;61.26;96947.63;5052141;28;20495;-67
2021/03/10 08:50:44;;;;;;;51.60;29.33;;;;;;;7.63;60.96;96940.47;5057603;28;20459;-67
2021/03/10 08:53:12;;;;;;;47.93;28.60;;;;;;;7.86;60.84;96947.97;5052930;28;20456;-71
2021/03/10 08:55:38;;;;;;;45.83;27.63;;;;;;;8.29;58.58;96947.41;5054469;28;20487;-69
2021/03/10 08:58:15;;;;;;;52.37;29.13;;;;;;;8.45;58.32;96946.78;5055272;28;20507;-69
2021/03/10 09:00:41;;;;;;;48.27;27.77;;;;;;;8.20;58.73;96942.22;5053285;28;20225;-66
2021/03/10 09:03:18;;;;;;;51.07;27.20;;;;;;;8.06;58.96;96941.75;5056084;28;20425;-68
2021/03/10 09:05:45;;;;;;;45.70;25.90;;;;;;;7.72;59.34;96939.63;5057268;28;20535;-72
2021/03/10 09:08:15;;;;;;;47.17;27.67;;;;;;;7.94;59.26;96938.47;5044732;28;20429;-70
2021/03/10 09:10:49;;;;;;;53.27;28.30;;;;;;;7.97;59.74;96942.56;5052616;28;20453;-66
2021/03/10 09:13:15;;;;;;;46.70;26.30;;;;;;;8.39;57.42;96946.53;5047026;28;20804;-68
2021/03/10 09:15:40;;;;;;;49.73;25.73;;;;;;;8.75;56.80;96941.44;5054462;28;20443;-69
2021/03/10 09:18:07;;;;;;;48.50;26.40;;;;;;;9.04;56.43;96935.16;5052510;28;20579;-72
2021/03/10 09:20:36;;;;;;;43.87;25.13;;;;;;;8.83;56.08;96949.34;5056516;28;20217;-68
2021/03/10 09:23:02;;;;;;;44.07;25.93;;;;;;;8.56;57.37;96939.75;5054180;28;20807;-69
2021/03/10 09:25:29;;;;;;;53.53;27.90;;;;;;;8.65;57.32;96938.88;5045744;28;20430;-69
2021/03/10 09:28:06;;;;;;;46.50;27.10;;;;;;;8.91;55.12;96940.78;5051573;28;20945;-67
2021/03/10 09:30:34;;;;;;;46.23;26.50;;;;;;;8.18;56.82;96936.34;5053400;28;20432;-68
2021/03/10 09:32:59;;;;;;;60.47;29.50;;;;;;;8.50;56.29;96932.50;5052905;28;20959;-69
2021/03/10 09:35:37;;;;;;;45.53;24.50;;;;;;;8.89;55.08;96935.69;5054071;28;20552;-69
2021/03/10 09:38:05;;;;;;;43.83;25.60;;;;;;;8.99;54.52;96935.63;5065637;28;20234;-68
2021/03/10 09:40:36;;;;;;;44.90;25.40;;;;;;;8.62;54.10;96944.38;5071482;28;20619;-69
2021/03/10 09:43:08;;;;;;;55.40;26.07;;;;;;;8.97;54.22;96949.81;5054709;28;20448;-69
2021/03/10 09:45:36;;;;;;;41.40;23.90;;;;;;;9.20;53.89;96939.72;5053070;28;20491;-70
2021/03/10 09:48:06;;;;;;;41.37;22.70;;;;;;;9.04;52.53;96946.47;5072268;28;20513;-69
2021/03/10 09:50:41;;;;;;;44.87;20.87;;;;;;;9.34;51.40;96936.56;5057649;28;20807;-70
2021/03/10 09:53:22;;;;;;;36.60;21.10;;;;;;;9.18;51.28;96936.47;5075965;28;20479;-69
2021/03/10 09:55:48;;;;;;;37.40;21.30;;;;;;;9.05;51.25;96926.34;5077713;28;20440;-69
2021/03/10 09:58:13;;;;;;;32.93;19.77;;;;;;;8.82;50.56;96931.22;5073754;28;20514;-70
2021/03/10 10:00:41;;;;;;;33.70;18.63;;;;;;;8.94;51.23;96929.19;5053411;28;20232;-68
2021/03/10 10:03:07;;;;;;;32.93;20.10;;;;;;;8.84;51.25;96926.63;5061824;28;20721;-68
2021/03/10 10:05:35;;;;;;;35.13;19.63;;;;;;;8.85;50.79;96920.44;5069007;28;20432;-69
2021/03/10 10:08:02;;;;;;;29.03;18.47;;;;;;;9.09;49.97;96924.25;5054190;28;20429;-70
2021/03/10 10:10:32;;;;;;;27.90;17.03;;;;;;;8.89;49.05;96927.03;5053938;28;20473;-69
2021/03/10 10:12:58;;;;;;;26.40;16.10;;;;;;;8.56;49.48;96934.53;5037301;28;20461;-68
2021/03/10 10:15:32;;;;;;;32.40;18.33;;;;;;;9.15;49.03;96926.28;5059380;28;20465;-68
2021/03/10 10:18:03;;;;;;;33.90;15.97;;;;;;;9.24;47.87;96932.41;5053113;28;20913;-69
2021/03/10 10:20:31;;;;;;;28.00;16.60;;;;;;;9.11;48.41;96931.00;5055775;28;20475;-68
2021/03/10 10:22:57;;;;;;;29.73;16.53;;;;;;;9.33;47.46;96934.13;5054003;28;20432;-68
2021/03/10 10:25:22;;;;;;;26.07;16.80;;;;;;;8.82;48.64;96936.44;5047678;28;20434;-68
2021/03/10 10:27:49;;;;;;;54.60;25.37;;;;;;;8.68;49.02;96930.75;5046867;28;20179;-69
2021/03/10 10:30:18;;;;;;;48.50;23.27;;;;;;;8.36;49.90;96934.59;5050461;28;20205;-68
2021/03/10 10:32:50;;;;;;;44.67;22.77;;;;;;;8.56;50.15;96937.97;5054673;28;20556;-70
2021/03/10 10:35:17;;;;;;;30.83;17.30;;;;;;;8.54;50.37;96931.25;5045142;28;20479;-69
2021/03/10 10:37:43;;;;;;;23.97;14.07;;;;;;;8.33;49.74;96929.66;5052653;28;20457;-69
2021/03/10 10:40:11;;;;;;;25.50;15.30;;;;;;;8.74;49.10;96930.16;5042064;28;20591;-70
2021/03/10 10:42:37;;;;;;;22.23;14.30;;;;;;;8.90;48.69;96926.06;5061177;28;20642;-69
2021/03/10 10:45:04;;;;;;;23.73;13.87;;;;;;;8.94;47.50;96924.81;5052630;28;20460;-69
2021/03/10 10:47:30;;;;;;;20.27;10.83;;;;;;;9.37;45.66;96923.19;5052562;28;20533;-69
2021/03/10 10:49:56;;;;;;;18.83;11.13;;;;;;;9.70;45.05;96917.38;5051226;28;20517;-67
2021/03/10 10:52:22;;;;;;;15.50;9.17;;;;;;;9.47;44.33;96914.44;5057491;28;20474;-68
2021/03/10 10:54:47;;;;;;;15.87;9.00;;;;;;;10.21;41.96;96912.25;5044131;28;20182;-69
2021/03/10 10:57:13;;;;;;;23.80;10.73;;;;;;;10.67;40.46;96913.75;5051058;28;20303;-72
2021/03/10 10:59:39;;;;;;;13.00;7.37;;;;;;;10.82;39.15;96908.72;5050205;28;20183;-68
2021/03/10 11:02:05;;;;;;;18.80;7.63;;;;;;;10.49;38.39;96914.69;5050805;28;20369;-70
2021/03/10 11:04:31;;;;;;;10.67;5.07;;;;;;;9.84;38.16;96921.22;5051047;28;20179;-69
2021/03/10 11:06:56;;;;;;;7.37;5.40;;;;;;;9.76;38.58;96919.41;5051892;28;20451;-67
2021/03/10 11:09:22;;;;;;;8.80;5.70;;;;;;;9.98;38.54;96907.56;5054262;28;20187;-68
2021/03/10 11:11:49;;;;;;;22.27;9.33;;;;;;;9.30;40.48;96919.56;5059832;28;20245;-69
2021/03/10 11:14:15;;;;;;;20.73;7.20;;;;;;;9.97;39.04;96916.41;5062871;28;20424;-71
2021/03/10 11:16:40;;;;;;;21.43;8.23;;;;;;;9.70;38.18;96913.97;5052060;28;20513;-69
2021/03/10 11:19:06;;;;;;;36.27;10.23;;;;;;;9.98;39.40;96920.66;5051545;28;20460;-71
2021/03/10 11:21:32;;;;;;;9.90;5.97;;;;;;;9.60;38.62;96919.28;5053799;28;20222;-70
2021/03/10 11:23:58;;;;;;;7.80;5.70;;;;;;;9.33;39.86;96913.19;5042273;28;21049;-70
2021/03/10 11:26:23;;;;;;;7.80;5.40;;;;;;;9.58;40.07;96903.72;5060475;28;20186;-67
2021/03/10 11:28:49;;;;;;;11.00;5.83;;;;;;;9.72;39.24;96911.97;5052127;28;20694;-72
2021/03/10 11:31:15;;;;;;;8.20;5.67;;;;;;;9.56;38.78;96905.69;5052090;28;20262;-68
2021/03/10 11:33:40;;;;;;;9.67;5.93;;;;;;;10.15;38.09;96903.22;5059874;28;20672;-68